createdAt,value
2022-12-26T00:00:55.295Z,9.03
2022-12-26T00:03:23.986Z,10.33
2022-12-26T00:05:54.687Z,9.17
2022-12-26T00:08:22.978Z,9.73
2022-12-26T00:10:51.344Z,9.47
2022-12-26T00:13:39.739Z,8.90
2022-12-26T00:16:12.017Z,9.00
2022-12-26T00:18:40.826Z,9.17
2022-12-26T00:21:11.010Z,9.33
2022-12-26T00:23:39.781Z,9.63
2022-12-26T00:26:10.449Z,9.27
2022-12-26T00:28:39.168Z,9.23
2022-12-26T00:31:09.335Z,9.47
2022-12-26T00:33:40.714Z,9.37
2022-12-26T00:36:11.021Z,9.57
2022-12-26T00:38:39.776Z,9.33
2022-12-26T00:41:09.851Z,9.27
2022-12-26T00:43:38.274Z,8.77
2022-12-26T00:46:07.486Z,9.43
2022-12-26T00:48:36.274Z,8.93
2022-12-26T00:51:06.701Z,8.83
2022-12-26T00:53:35.075Z,9.87
2022-12-26T00:56:03.861Z,12.63
2022-12-26T00:58:32.664Z,12.73
2022-12-26T01:01:08.015Z,11.13
2022-12-26T01:03:36.332Z,9.87
2022-12-26T01:06:06.375Z,10.53
2022-12-26T01:08:34.643Z,10.63
2022-12-26T01:11:06.450Z,9.73
2022-12-26T01:13:35.070Z,10.40
2022-12-26T01:16:03.627Z,9.33
2022-12-26T01:18:32.285Z,9.53
2022-12-26T01:21:07.485Z,9.00
2022-12-26T01:23:52.740Z,9.20
2022-12-26T01:26:34.979Z,9.40
2022-12-26T01:29:03.277Z,9.30
2022-12-26T01:31:31.632Z,9.90
2022-12-26T01:33:59.928Z,9.63
2022-12-26T01:36:28.160Z,8.53
2022-12-26T01:38:57.883Z,8.67
2022-12-26T01:41:26.850Z,8.83
2022-12-26T01:43:58.120Z,9.33
2022-12-26T01:46:31.268Z,8.67
2022-12-26T01:49:02.832Z,10.47
2022-12-26T01:51:34.712Z,12.57
2022-12-26T01:54:38.035Z,12.10
2022-12-26T01:56:55.273Z,9.73
2022-12-26T01:59:27.753Z,9.43
2022-12-26T02:01:56.984Z,9.93
2022-12-26T02:04:47.984Z,9.90
2022-12-26T02:07:16.448Z,9.80
2022-12-26T02:09:46.979Z,9.47
2022-12-26T02:12:34.784Z,9.30
2022-12-26T02:15:09.060Z,8.50
2022-12-26T02:17:39.026Z,9.03
2022-12-26T02:20:18.980Z,10.53
2022-12-26T02:23:22.302Z,9.00
2022-12-26T02:26:19.223Z,9.77
2022-12-26T02:29:05.882Z,10.37
2022-12-26T02:31:45.112Z,9.10
2022-12-26T02:34:17.265Z,9.07
2022-12-26T02:37:00.240Z,9.37
2022-12-26T02:39:48.318Z,8.90
2022-12-26T02:42:30.073Z,9.40
2022-12-26T02:45:24.144Z,9.17
2022-12-26T02:47:58.744Z,8.07
2022-12-26T02:51:11.256Z,8.43
2022-12-26T02:54:05.227Z,8.53
2022-12-26T02:56:55.358Z,7.90
2022-12-26T02:59:55.519Z,8.20
2022-12-26T03:02:49.349Z,7.87
2022-12-26T03:05:43.222Z,6.80
2022-12-26T03:08:34.177Z,6.40
2022-12-26T03:11:19.939Z,6.23
2022-12-26T03:13:50.652Z,6.43
2022-12-26T03:16:37.281Z,6.63
2022-12-26T03:19:08.658Z,5.70
2022-12-26T03:21:46.318Z,6.20
2022-12-26T03:24:18.071Z,5.60
2022-12-26T03:26:51.966Z,5.60
2022-12-26T03:29:39.326Z,6.23
2022-12-26T03:32:09.678Z,5.47
2022-12-26T03:34:42.555Z,5.40
2022-12-26T03:37:49.119Z,4.97
2022-12-26T03:40:57.442Z,5.10
2022-12-26T03:43:57.832Z,5.93
2022-12-26T03:46:52.548Z,5.07
2022-12-26T03:49:45.367Z,5.80
2022-12-26T03:52:40.929Z,5.80
2022-12-26T03:55:33.792Z,6.23
2022-12-26T03:58:25.413Z,5.50
2022-12-26T04:01:14.094Z,5.90
2022-12-26T04:04:03.044Z,6.00
2022-12-26T04:06:55.122Z,6.00
2022-12-26T04:09:46.771Z,5.63
2022-12-26T04:12:40.642Z,5.67
2022-12-26T04:15:36.264Z,5.03
2022-12-26T04:18:28.012Z,6.03
2022-12-26T04:21:07.856Z,6.00
2022-12-26T04:24:05.352Z,6.27
2022-12-26T04:26:55.748Z,6.20
2022-12-26T04:29:43.499Z,6.93
2022-12-26T04:32:35.407Z,6.13
2022-12-26T04:35:26.795Z,6.17
2022-12-26T04:38:15.522Z,5.97
2022-12-26T04:41:09.490Z,6.17
2022-12-26T04:43:57.346Z,5.93
2022-12-26T04:46:28.552Z,5.97
2022-12-26T04:49:14.756Z,6.03
2022-12-26T04:51:43.056Z,6.03
2022-12-26T04:54:11.345Z,6.47
2022-12-26T04:56:39.637Z,6.30
2022-12-26T04:59:07.880Z,5.93
2022-12-26T05:01:55.166Z,6.80
2022-12-26T05:04:40.786Z,6.77
2022-12-26T05:07:33.574Z,5.53
2022-12-26T05:10:02.305Z,6.13
2022-12-26T05:12:30.532Z,5.97
2022-12-26T05:14:58.804Z,5.37
2022-12-26T05:17:46.084Z,5.23
2022-12-26T05:20:46.574Z,6.13
2022-12-26T05:23:36.997Z,5.13
2022-12-26T05:26:23.190Z,5.67
2022-12-26T05:28:59.404Z,5.17
2022-12-26T05:31:34.622Z,5.03
2022-12-26T05:34:07.146Z,5.03
2022-12-26T05:36:39.424Z,4.80
2022-12-26T05:39:08.815Z,5.33
2022-12-26T05:41:37.273Z,5.20
2022-12-26T05:44:06.358Z,4.63
2022-12-26T05:46:34.971Z,5.37
2022-12-26T05:49:03.910Z,4.77
2022-12-26T05:51:33.562Z,4.27
2022-12-26T05:54:02.926Z,4.63
2022-12-26T05:56:31.356Z,3.90
2022-12-26T05:59:01.477Z,4.43
2022-12-26T06:01:31.178Z,3.60
2022-12-26T06:04:01.287Z,3.97
2022-12-26T06:06:30.190Z,3.97
2022-12-26T06:08:59.895Z,4.23
2022-12-26T06:11:28.615Z,4.07
2022-12-26T06:13:57.308Z,4.10
2022-12-26T06:16:25.728Z,4.27
2022-12-26T06:18:55.878Z,4.87
2022-12-26T06:21:24.255Z,4.17
2022-12-26T06:23:52.489Z,4.13
2022-12-26T06:26:22.178Z,4.37
2022-12-26T06:28:50.481Z,3.80
2022-12-26T06:31:21.477Z,4.27
2022-12-26T06:33:51.387Z,3.93
2022-12-26T06:36:22.282Z,3.83
2022-12-26T06:38:51.193Z,4.73
2022-12-26T06:41:22.755Z,3.57
2022-12-26T06:43:51.776Z,3.97
2022-12-26T06:46:22.355Z,3.70
2022-12-26T06:48:50.857Z,4.37
2022-12-26T06:51:21.073Z,3.47
2022-12-26T06:53:50.021Z,3.40
2022-12-26T06:56:19.962Z,3.73
2022-12-26T06:58:53.163Z,3.27
2022-12-26T07:01:22.460Z,3.50
2022-12-26T07:03:52.076Z,3.30
2022-12-26T07:06:24.874Z,2.90
2022-12-26T07:08:54.324Z,2.97
2022-12-26T07:11:24.537Z,2.87
2022-12-26T07:13:54.862Z,3.20
2022-12-26T07:16:23.660Z,2.50
2022-12-26T07:18:54.039Z,2.57
2022-12-26T07:21:22.561Z,2.90
2022-12-26T07:23:50.874Z,2.30
2022-12-26T07:26:19.718Z,2.30
2022-12-26T07:28:48.369Z,2.63
2022-12-26T07:31:20.313Z,2.20
2022-12-26T07:33:50.326Z,2.10
2022-12-26T07:36:20.622Z,1.83
2022-12-26T07:38:49.466Z,2.00
2022-12-26T07:41:34.899Z,1.77
2022-12-26T07:44:03.214Z,1.70
2022-12-26T07:46:33.076Z,1.90
2022-12-26T07:49:01.446Z,1.83
2022-12-26T07:51:29.950Z,1.80
2022-12-26T07:53:58.243Z,1.60
2022-12-26T07:56:26.493Z,1.70
2022-12-26T07:58:54.788Z,1.57
2022-12-26T08:01:23.160Z,1.87
2022-12-26T08:03:53.426Z,1.63
2022-12-26T08:06:22.303Z,1.80
2022-12-26T08:08:53.040Z,1.70
2022-12-26T08:11:24.354Z,1.70
2022-12-26T08:13:53.284Z,1.70
2022-12-26T08:16:22.040Z,1.93
2022-12-26T08:18:50.465Z,2.07
2022-12-26T08:21:20.081Z,2.43
2022-12-26T08:23:48.506Z,2.00
2022-12-26T08:26:22.481Z,1.60
2022-12-26T08:28:52.086Z,1.77
2022-12-26T08:31:21.532Z,1.77
2022-12-26T08:33:50.227Z,1.60
2022-12-26T08:36:20.022Z,1.70
2022-12-26T08:38:48.345Z,1.83
2022-12-26T08:41:17.695Z,1.73
2022-12-26T08:46:38.325Z,2.30
2022-12-26T08:49:06.691Z,1.90
2022-12-26T08:51:36.920Z,1.53
2022-12-26T08:54:06.046Z,1.80
2022-12-26T08:56:34.381Z,1.50
2022-12-26T08:59:02.657Z,1.40
2022-12-26T09:01:32.256Z,1.47
2022-12-26T09:04:06.727Z,1.83
2022-12-26T09:06:39.511Z,1.67
2022-12-26T09:09:11.276Z,1.70
2022-12-26T09:11:42.280Z,1.70
2022-12-26T09:14:11.286Z,1.60
2022-12-26T09:16:49.628Z,1.80
2022-12-26T09:19:19.539Z,2.00
2022-12-26T09:22:10.254Z,1.90
2022-12-26T09:24:38.603Z,1.60
2022-12-26T09:27:07.203Z,1.67
2022-12-26T09:29:35.689Z,1.63
2022-12-26T09:32:03.975Z,1.70
2022-12-26T09:34:32.842Z,1.43
2022-12-26T09:37:02.467Z,2.53
2022-12-26T09:39:30.847Z,1.67
2022-12-26T09:42:06.179Z,1.93
2022-12-26T09:44:45.058Z,1.53
2022-12-26T09:47:31.479Z,1.90
2022-12-26T09:50:04.302Z,1.30
2022-12-26T09:52:44.042Z,1.20
2022-12-26T09:55:33.207Z,1.17
2022-12-26T09:58:09.558Z,1.00
2022-12-26T10:00:44.830Z,1.10
2022-12-26T10:03:13.394Z,1.13
2022-12-26T10:05:56.577Z,1.50
2022-12-26T10:08:34.378Z,1.43
2022-12-26T10:11:04.159Z,1.43
2022-12-26T10:13:40.100Z,1.10
2022-12-26T10:16:15.329Z,1.23
2022-12-26T10:18:54.621Z,1.63
2022-12-26T10:21:36.317Z,1.23
2022-12-26T10:24:12.995Z,1.40
2022-12-26T10:26:45.124Z,1.37
2022-12-26T10:29:21.146Z,1.30
2022-12-26T10:31:54.751Z,1.50
2022-12-26T10:34:29.082Z,1.43
2022-12-26T10:37:01.780Z,1.03
2022-12-26T10:39:36.079Z,1.40
2022-12-26T10:42:13.099Z,1.20
2022-12-26T10:44:42.274Z,1.40
2022-12-26T10:47:24.988Z,1.87
2022-12-26T10:49:53.721Z,1.27
2022-12-26T10:52:26.706Z,1.97
2022-12-26T10:55:29.179Z,1.30
2022-12-26T10:57:51.380Z,1.40
2022-12-26T11:00:22.145Z,0.97
2022-12-26T11:03:04.463Z,1.07
2022-12-26T11:08:27.909Z,1.20
2022-12-26T11:11:06.737Z,1.03
2022-12-26T11:13:40.152Z,1.20
2022-12-26T11:16:09.586Z,1.70
2022-12-26T11:18:39.996Z,1.50
2022-12-26T11:21:14.931Z,1.20
2022-12-26T11:23:43.357Z,1.43
2022-12-26T11:26:23.622Z,0.93
2022-12-26T11:29:07.686Z,1.10
2022-12-26T11:31:36.132Z,1.07
2022-12-26T11:34:09.893Z,1.37
2022-12-26T11:36:45.780Z,1.77
2022-12-26T11:39:23.651Z,1.33
2022-12-26T11:41:54.297Z,1.00
2022-12-26T11:44:27.574Z,1.30
2022-12-26T11:46:59.063Z,0.90
2022-12-26T11:49:32.126Z,1.10
2022-12-26T11:52:02.061Z,0.80
2022-12-26T11:54:36.943Z,0.90
2022-12-26T11:57:16.349Z,1.10
2022-12-26T11:59:45.375Z,1.20
2022-12-26T12:02:30.957Z,1.10
2022-12-26T12:05:03.728Z,1.10
2022-12-26T12:07:55.895Z,1.20
2022-12-26T12:10:55.595Z,0.80
2022-12-26T12:13:46.144Z,1.20
2022-12-26T12:16:32.269Z,1.17
2022-12-26T12:19:15.451Z,1.23
2022-12-26T12:21:46.010Z,1.03
2022-12-26T12:24:49.441Z,1.10
2022-12-26T12:27:22.842Z,0.93
2022-12-26T12:30:07.552Z,1.00
2022-12-26T12:32:49.608Z,1.00
2022-12-26T12:35:39.363Z,1.37
2022-12-26T12:38:24.618Z,1.10
2022-12-26T12:40:58.677Z,0.90
2022-12-26T12:43:32.573Z,0.70
2022-12-26T12:46:10.372Z,0.83
2022-12-26T12:48:55.440Z,1.10
2022-12-26T12:51:35.952Z,0.80
2022-12-26T12:54:48.321Z,1.03
2022-12-26T12:57:24.424Z,1.20
2022-12-26T13:00:04.658Z,1.00
2022-12-26T13:02:39.827Z,0.57
2022-12-26T13:05:30.028Z,1.10
2022-12-26T13:08:03.554Z,0.70
2022-12-26T13:10:35.183Z,1.00
2022-12-26T13:13:19.303Z,0.80
2022-12-26T13:15:52.669Z,1.00
2022-12-26T13:18:24.785Z,1.20
2022-12-26T13:20:56.355Z,0.90
2022-12-26T13:23:53.697Z,1.03
2022-12-26T13:26:27.134Z,1.37
2022-12-26T13:29:02.214Z,1.20
2022-12-26T13:31:34.515Z,1.30
2022-12-26T13:34:06.579Z,1.20
2022-12-26T13:36:37.757Z,1.37
2022-12-26T13:39:36.808Z,0.87
2022-12-26T13:42:37.768Z,0.80
2022-12-26T13:45:56.592Z,0.93
2022-12-26T13:49:08.098Z,1.03
2022-12-26T13:51:49.935Z,1.07
2022-12-26T13:54:19.352Z,1.20
2022-12-26T13:57:21.078Z,1.00
2022-12-26T14:00:02.393Z,1.20
2022-12-26T14:03:20.591Z,0.90
2022-12-26T14:06:28.582Z,0.97
2022-12-26T14:09:29.111Z,1.20
2022-12-26T14:12:10.217Z,0.70
2022-12-26T14:14:54.418Z,1.07
2022-12-26T14:17:34.642Z,0.70
2022-12-26T14:20:13.557Z,1.60
2022-12-26T14:22:49.079Z,0.80
2022-12-26T14:25:24.339Z,0.57
2022-12-26T14:27:59.588Z,0.70
2022-12-26T14:30:35.379Z,0.90
2022-12-26T14:33:25.385Z,1.03
2022-12-26T14:36:06.786Z,0.97
2022-12-26T14:38:45.094Z,1.33
2022-12-26T14:41:35.832Z,1.00
2022-12-26T14:44:17.074Z,0.80
2022-12-26T14:47:01.681Z,0.70
2022-12-26T14:49:42.138Z,0.90
2022-12-26T14:52:40.722Z,0.93
2022-12-26T14:55:42.265Z,1.00
2022-12-26T14:58:27.024Z,0.73
2022-12-26T15:00:58.866Z,0.83
2022-12-26T15:03:44.800Z,0.90
2022-12-26T15:06:52.882Z,0.70
2022-12-26T15:10:08.733Z,1.00
2022-12-26T15:13:09.247Z,0.80
2022-12-26T15:16:01.193Z,0.83
2022-12-26T15:19:06.623Z,0.97
2022-12-26T15:22:01.785Z,1.23
2022-12-26T15:25:19.688Z,1.83
2022-12-26T15:28:27.431Z,1.47
2022-12-26T15:31:36.658Z,1.40
2022-12-26T15:34:29.587Z,1.40
2022-12-26T15:37:06.748Z,2.17
2022-12-26T15:39:42.179Z,1.50
2022-12-26T15:42:26.235Z,1.50
2022-12-26T15:45:09.827Z,1.70
2022-12-26T15:47:44.425Z,1.23
2022-12-26T15:50:25.079Z,1.57
2022-12-26T15:53:06.737Z,1.37
2022-12-26T15:55:53.254Z,1.50
2022-12-26T15:58:37.263Z,1.70
2022-12-26T16:01:07.096Z,1.80
2022-12-26T16:03:46.656Z,1.70
2022-12-26T16:06:40.819Z,1.90
2022-12-26T16:09:28.368Z,2.70
2022-12-26T16:11:58.561Z,4.00
2022-12-26T16:14:30.535Z,5.67
2022-12-26T16:17:11.966Z,11.17
2022-12-26T16:19:41.586Z,9.63
2022-12-26T16:22:35.967Z,8.20
2022-12-26T16:25:05.173Z,5.03
2022-12-26T16:27:33.694Z,5.63
2022-12-26T16:30:11.352Z,4.57
2022-12-26T16:32:42.500Z,7.73
2022-12-26T16:35:19.990Z,4.67
2022-12-26T16:37:50.565Z,4.00
2022-12-26T16:40:23.346Z,3.07
2022-12-26T16:43:05.552Z,4.10
2022-12-26T16:45:36.489Z,3.23
2022-12-26T16:48:08.298Z,4.43
2022-12-26T16:50:46.123Z,3.30
2022-12-26T16:53:18.565Z,3.30
2022-12-26T16:55:49.137Z,4.30
2022-12-26T16:58:23.022Z,3.97
2022-12-26T17:01:09.110Z,3.63
2022-12-26T17:03:41.965Z,4.00
2022-12-26T17:06:15.313Z,6.80
2022-12-26T17:08:48.521Z,6.57
2022-12-26T17:11:17.341Z,5.57
2022-12-26T17:13:52.856Z,3.47
2022-12-26T17:16:25.840Z,3.80
2022-12-26T17:18:55.180Z,3.20
2022-12-26T17:21:30.218Z,3.43
2022-12-26T17:24:26.280Z,3.20
2022-12-26T17:27:10.027Z,3.30
2022-12-26T17:29:48.272Z,3.47
2022-12-26T17:32:22.023Z,3.20
2022-12-26T17:34:50.687Z,3.13
2022-12-26T17:37:24.709Z,3.10
2022-12-26T17:40:02.585Z,3.47
2022-12-26T17:42:41.002Z,4.20
2022-12-26T17:45:11.137Z,3.30
2022-12-26T17:47:39.546Z,3.50
2022-12-26T17:50:08.165Z,4.27
2022-12-26T17:52:37.486Z,3.73
2022-12-26T17:55:16.493Z,4.57
2022-12-26T17:57:44.839Z,5.10
2022-12-26T18:00:19.235Z,4.33
2022-12-26T18:02:47.812Z,5.00
2022-12-26T18:05:16.759Z,4.67
2022-12-26T18:07:45.825Z,4.30
2022-12-26T18:10:20.940Z,4.23
2022-12-26T18:12:50.089Z,4.33
2022-12-26T18:15:19.431Z,4.10
2022-12-26T18:17:49.372Z,3.80
2022-12-26T18:20:19.291Z,4.23
2022-12-26T18:22:48.389Z,4.00
2022-12-26T18:25:19.669Z,3.87
2022-12-26T18:27:49.320Z,4.50
2022-12-26T18:30:19.777Z,4.77
2022-12-26T18:32:49.266Z,4.53
2022-12-26T18:35:19.089Z,4.20
2022-12-26T18:37:49.544Z,5.33
2022-12-26T18:40:29.666Z,4.83
2022-12-26T18:42:58.422Z,4.50
2022-12-26T18:45:27.048Z,5.13
2022-12-26T18:47:55.409Z,4.77
2022-12-26T18:50:24.490Z,4.13
2022-12-26T18:52:53.968Z,3.83
2022-12-26T18:55:25.369Z,4.17
2022-12-26T18:57:54.620Z,3.80
2022-12-26T19:00:24.032Z,3.20
2022-12-26T19:02:52.916Z,4.13
2022-12-26T19:05:24.029Z,3.80
2022-12-26T19:07:52.385Z,4.03
2022-12-26T19:10:24.772Z,3.90
2022-12-26T19:12:53.363Z,4.40
2022-12-26T19:15:22.117Z,4.57
2022-12-26T19:17:50.542Z,3.80
2022-12-26T19:20:25.296Z,4.73
2022-12-26T19:22:55.214Z,4.40
2022-12-26T19:25:26.924Z,5.20
2022-12-26T19:27:55.685Z,4.30
2022-12-26T19:30:24.372Z,4.27
2022-12-26T19:32:52.640Z,4.50
2022-12-26T19:35:21.334Z,4.47
2022-12-26T19:37:51.815Z,4.20
2022-12-26T19:40:24.998Z,3.97
2022-12-26T19:42:55.033Z,4.77
2022-12-26T19:45:23.478Z,4.30
2022-12-26T19:47:54.582Z,4.50
2022-12-26T19:50:22.958Z,4.87
2022-12-26T19:52:51.280Z,4.40
2022-12-26T19:55:19.958Z,4.00
2022-12-26T19:57:48.263Z,4.60
2022-12-26T20:00:18.233Z,4.17
2022-12-26T20:02:46.954Z,4.23
2022-12-26T20:05:15.324Z,4.37
2022-12-26T20:07:43.592Z,4.13
2022-12-26T20:10:11.930Z,4.67
2022-12-26T20:12:40.250Z,4.83
2022-12-26T20:15:09.567Z,3.83
2022-12-26T20:17:39.270Z,3.50
2022-12-26T20:20:09.247Z,4.03
2022-12-26T20:22:37.817Z,4.10
2022-12-26T20:25:09.886Z,3.63
2022-12-26T20:27:38.289Z,4.30
2022-12-26T20:30:10.096Z,4.33
2022-12-26T20:32:44.019Z,4.27
2022-12-26T20:35:12.565Z,3.97
2022-12-26T20:37:40.970Z,3.97
2022-12-26T20:40:10.913Z,5.10
2022-12-26T20:42:39.222Z,4.27
2022-12-26T20:45:09.423Z,4.20
2022-12-26T20:47:39.158Z,4.13
2022-12-26T20:50:09.132Z,5.07
2022-12-26T20:52:37.477Z,4.00
2022-12-26T20:55:08.058Z,4.33
2022-12-26T20:57:36.376Z,4.60
2022-12-26T21:00:07.031Z,4.70
2022-12-26T21:02:35.686Z,4.27
2022-12-26T21:05:07.478Z,4.10
2022-12-26T21:07:36.007Z,4.73
2022-12-26T21:10:06.163Z,5.20
2022-12-26T21:12:34.863Z,4.30
2022-12-26T21:15:03.194Z,4.87
2022-12-26T21:17:32.600Z,4.30
2022-12-26T21:20:00.962Z,4.83
2022-12-26T21:22:30.674Z,4.40
2022-12-26T21:24:59.016Z,6.10
2022-12-26T21:27:27.376Z,4.70
2022-12-26T21:29:55.767Z,4.80
2022-12-26T21:32:24.072Z,4.23
2022-12-26T21:34:52.427Z,4.10
2022-12-26T21:37:37.952Z,4.17
2022-12-26T21:40:09.538Z,4.10
2022-12-26T21:42:38.625Z,4.93
2022-12-26T21:45:08.329Z,4.30
2022-12-26T21:47:37.325Z,4.20
2022-12-26T21:50:06.223Z,3.90
2022-12-26T21:52:34.680Z,4.27
2022-12-26T21:55:20.824Z,3.77
2022-12-26T21:57:50.605Z,4.40
2022-12-26T22:00:19.255Z,4.43
2022-12-26T22:03:05.256Z,4.20
2022-12-26T22:05:37.501Z,4.43
2022-12-26T22:08:08.393Z,4.23
2022-12-26T22:10:55.393Z,3.83
2022-12-26T22:13:26.783Z,4.07
2022-12-26T22:16:07.176Z,4.00
2022-12-26T22:18:38.311Z,4.20
2022-12-26T22:21:10.510Z,3.73
2022-12-26T22:23:39.507Z,3.93
2022-12-26T22:26:10.388Z,4.87
2022-12-26T22:28:40.434Z,4.40
2022-12-26T22:31:08.978Z,3.80
2022-12-26T22:33:37.327Z,4.80
2022-12-26T22:36:08.300Z,4.40
2022-12-26T22:38:37.478Z,4.07
2022-12-26T22:41:07.589Z,4.57
2022-12-26T22:43:36.890Z,4.50
2022-12-26T22:46:07.341Z,5.17
2022-12-26T22:48:35.830Z,4.60
2022-12-26T22:51:04.349Z,4.80
2022-12-26T22:53:33.571Z,4.50
2022-12-26T22:56:04.400Z,4.57
2022-12-26T22:58:34.041Z,5.07
2022-12-26T23:01:02.442Z,4.60
2022-12-26T23:03:32.131Z,4.33
2022-12-26T23:06:00.763Z,4.53
2022-12-26T23:08:29.579Z,4.43
2022-12-26T23:10:59.565Z,4.03
2022-12-26T23:13:28.470Z,4.17
2022-12-26T23:16:02.505Z,4.30
2022-12-26T23:18:57.284Z,4.47
2022-12-26T23:21:42.159Z,3.87
2022-12-26T23:24:14.911Z,3.93
2022-12-26T23:26:45.345Z,3.53
2022-12-26T23:29:32.208Z,4.10
2022-12-26T23:32:00.848Z,3.50
2022-12-26T23:34:31.350Z,5.50
2022-12-26T23:36:59.773Z,4.33
2022-12-26T23:39:28.109Z,3.57
2022-12-26T23:41:56.737Z,4.10
2022-12-26T23:44:25.071Z,3.50
2022-12-26T23:46:53.312Z,4.00
2022-12-26T23:49:21.624Z,4.07
2022-12-26T23:51:51.403Z,3.90
2022-12-26T23:54:19.695Z,3.93
2022-12-26T23:56:47.917Z,3.67
2022-12-26T23:59:16.191Z,3.97
